createdAt,value
2023-01-15T00:01:38.226Z,99713.44
2023-01-15T00:06:41.998Z,99847.19
2023-01-15T00:11:47.022Z,99812.13
2023-01-15T00:16:52.882Z,99799.66
2023-01-15T00:21:55.253Z,99806.97
2023-01-15T00:27:15.954Z,99640.44
2023-01-15T00:32:18.246Z,99894.28
2023-01-15T00:37:20.523Z,99911.72
2023-01-15T00:42:22.875Z,99788.28
2023-01-15T00:47:25.263Z,99744.94
2023-01-15T00:52:27.564Z,99812.59
2023-01-15T00:57:29.882Z,99798.09
2023-01-15T01:02:32.330Z,99779.47
2023-01-15T01:07:35.692Z,99886.28
2023-01-15T01:12:38.969Z,99897.84
2023-01-15T01:17:41.540Z,99894.31
2023-01-15T01:22:44.484Z,99861.72
2023-01-15T01:27:46.873Z,99852.19
2023-01-15T01:32:49.311Z,99830.88
2023-01-15T01:37:52.382Z,99874.88
2023-01-15T01:42:54.672Z,99853.66
2023-01-15T01:48:00.982Z,99885.91
2023-01-15T01:53:09.277Z,99851.09
2023-01-15T01:58:12.934Z,99843.34
2023-01-15T02:03:16.030Z,99847.16
2023-01-15T02:08:19.093Z,99848.13
2023-01-15T02:13:39.254Z,99869.88
2023-01-15T02:19:30.578Z,99825.16
2023-01-15T02:24:52.468Z,99858.00
2023-01-15T02:30:06.990Z,99880.78
2023-01-15T02:35:24.887Z,99845.56
2023-01-15T02:40:28.908Z,99864.03
2023-01-15T02:45:34.108Z,99798.63
2023-01-15T02:50:45.990Z,99847.22
2023-01-15T02:55:50.207Z,99878.06
2023-01-15T03:00:57.480Z,99845.38
2023-01-15T03:06:22.405Z,99856.25
2023-01-15T03:11:24.969Z,99784.50
2023-01-15T03:16:38.362Z,99819.56
2023-01-15T03:21:47.075Z,99834.88
2023-01-15T03:26:51.015Z,99878.47
2023-01-15T03:31:53.451Z,99886.44
2023-01-15T03:36:55.757Z,99867.81
2023-01-15T03:42:16.651Z,99881.44
2023-01-15T03:47:40.131Z,99885.66
2023-01-15T03:52:47.069Z,99876.81
2023-01-15T03:57:53.296Z,99767.91
2023-01-15T04:02:57.102Z,99846.69
2023-01-15T04:08:02.183Z,99845.03
2023-01-15T04:13:07.001Z,99834.13
2023-01-15T04:18:09.312Z,99863.22
2023-01-15T04:23:11.941Z,99892.09
2023-01-15T04:28:14.262Z,99764.72
2023-01-15T04:33:16.613Z,99767.63
2023-01-15T04:38:18.877Z,99810.59
2023-01-15T04:43:39.784Z,99772.13
2023-01-15T04:48:42.849Z,99831.59
2023-01-15T04:53:45.111Z,99846.50
2023-01-15T04:58:47.407Z,99857.91
2023-01-15T05:03:49.753Z,99791.66
2023-01-15T05:08:52.874Z,99791.56
2023-01-15T05:13:57.976Z,99714.19
2023-01-15T05:19:05.032Z,99765.34
2023-01-15T05:24:09.149Z,99838.66
2023-01-15T05:29:12.294Z,99744.34
2023-01-15T05:34:14.809Z,99837.16
2023-01-15T05:39:17.424Z,99728.28
2023-01-15T05:44:23.791Z,99770.66
2023-01-15T05:49:27.954Z,99797.25
2023-01-15T05:54:33.991Z,99821.88
2023-01-15T05:59:36.203Z,99810.75
2023-01-15T06:04:41.525Z,99816.13
2023-01-15T06:09:44.086Z,99754.91
2023-01-15T06:14:46.423Z,99787.91
2023-01-15T06:19:48.785Z,99860.47
2023-01-15T06:24:51.099Z,99762.44
2023-01-15T06:29:59.255Z,99864.88
2023-01-15T06:35:04.744Z,99801.28
2023-01-15T06:40:10.108Z,99840.31
2023-01-15T06:45:31.308Z,99798.38
2023-01-15T06:50:33.609Z,99865.25
2023-01-15T06:55:35.966Z,99831.66
2023-01-15T07:00:38.777Z,99721.91
2023-01-15T07:05:45.958Z,99605.56
2023-01-15T07:10:48.415Z,99547.06
2023-01-15T07:15:50.733Z,99562.19
2023-01-15T07:20:59.599Z,99882.81
2023-01-15T07:26:01.904Z,99751.47
2023-01-15T07:31:04.220Z,99825.66
2023-01-15T07:36:06.766Z,99806.44
2023-01-15T07:41:27.400Z,99716.44
2023-01-15T07:46:56.333Z,99860.47
2023-01-15T07:51:59.058Z,99832.03
2023-01-15T07:57:01.452Z,99871.25
2023-01-15T08:02:04.311Z,99875.78
2023-01-15T08:07:06.912Z,99819.13
2023-01-15T08:12:29.016Z,99843.16
2023-01-15T08:17:33.903Z,99858.19
2023-01-15T08:22:37.501Z,99862.53
2023-01-15T08:27:41.083Z,99889.03
2023-01-15T08:32:43.808Z,99872.06
2023-01-15T08:37:46.163Z,99764.44
2023-01-15T08:42:48.433Z,99817.41
2023-01-15T08:47:50.649Z,99829.56
2023-01-15T08:52:52.924Z,99808.94
2023-01-15T08:57:55.232Z,99843.53
2023-01-15T09:02:58.170Z,99813.25
2023-01-15T09:08:00.589Z,99818.81
2023-01-15T09:13:03.860Z,99711.44
2023-01-15T09:18:06.274Z,99816.34
2023-01-15T09:23:08.571Z,99754.47
2023-01-15T09:28:10.943Z,99860.69
2023-01-15T09:33:13.277Z,99730.72
2023-01-15T09:38:19.449Z,99820.94
2023-01-15T09:43:53.655Z,99800.97
2023-01-15T09:49:07.900Z,99804.16
2023-01-15T09:54:19.145Z,99837.00
2023-01-15T09:59:37.416Z,99827.38
2023-01-15T10:04:45.994Z,99707.16
2023-01-15T10:10:18.044Z,99802.91
2023-01-15T10:15:33.546Z,99800.78
2023-01-15T10:20:56.139Z,99829.66
2023-01-15T10:26:16.806Z,99836.72
2023-01-15T10:31:24.819Z,99729.09
2023-01-15T10:36:58.963Z,99600.16
2023-01-15T10:42:13.068Z,99792.19
2023-01-15T10:47:19.739Z,99704.56
2023-01-15T10:52:27.651Z,99801.72
2023-01-15T10:57:45.418Z,99792.44
2023-01-15T11:02:52.191Z,99703.97
2023-01-15T11:08:26.428Z,99774.81
2023-01-15T11:13:38.544Z,99749.53
2023-01-15T11:19:02.739Z,99737.28
2023-01-15T11:24:05.436Z,99687.34
2023-01-15T11:29:28.852Z,99751.19
2023-01-15T11:34:38.987Z,99761.94
2023-01-15T11:39:43.366Z,99697.81
2023-01-15T11:45:18.088Z,99685.78
2023-01-15T11:50:39.687Z,99720.94
2023-01-15T11:55:53.930Z,99721.88
2023-01-15T12:00:58.570Z,99684.22
2023-01-15T12:06:05.749Z,99709.47
2023-01-15T12:11:46.575Z,99747.25
2023-01-15T12:17:07.861Z,99707.94
2023-01-15T12:22:42.366Z,99754.50
2023-01-15T12:27:53.415Z,99717.88
2023-01-15T12:33:17.143Z,99720.88
2023-01-15T12:38:33.524Z,99715.56
2023-01-15T12:43:54.263Z,99599.84
2023-01-15T12:49:12.290Z,99738.50
2023-01-15T12:54:16.721Z,99764.56
2023-01-15T12:59:27.103Z,99770.63
2023-01-15T13:04:49.399Z,99747.72
2023-01-15T13:10:11.549Z,99742.25
2023-01-15T13:15:17.970Z,99734.56
2023-01-15T13:20:26.431Z,99773.31
2023-01-15T13:25:43.872Z,99685.91
2023-01-15T13:31:08.268Z,99734.66
2023-01-15T13:36:19.414Z,99741.28
2023-01-15T13:41:43.772Z,99786.66
2023-01-15T13:46:48.095Z,99787.47
2023-01-15T13:51:50.715Z,99754.63
2023-01-15T13:56:53.193Z,99764.81
2023-01-15T14:01:55.609Z,99662.09
2023-01-15T14:07:00.923Z,99760.00
2023-01-15T14:12:22.105Z,99786.81
2023-01-15T14:17:46.126Z,99789.13
2023-01-15T14:22:59.062Z,99708.84
2023-01-15T14:28:27.009Z,99719.78
2023-01-15T14:33:51.062Z,99648.06
2023-01-15T14:38:57.428Z,99726.84
2023-01-15T14:44:04.679Z,99741.81
2023-01-15T14:49:28.997Z,99758.22
2023-01-15T14:54:34.482Z,99731.31
2023-01-15T14:59:36.775Z,99754.63
2023-01-15T15:04:49.113Z,99713.44
2023-01-15T15:10:11.456Z,99718.75
2023-01-15T15:15:26.438Z,99622.41
2023-01-15T15:20:49.030Z,99737.38
2023-01-15T15:26:05.912Z,99733.03
2023-01-15T15:31:09.911Z,99689.66
2023-01-15T15:36:12.746Z,99669.31
2023-01-15T15:41:15.185Z,99726.69
2023-01-15T15:46:47.936Z,99631.09
2023-01-15T15:51:52.465Z,99683.78
2023-01-15T15:57:10.026Z,99643.06
2023-01-15T16:02:18.711Z,99671.78
2023-01-15T16:07:33.953Z,99655.59
2023-01-15T16:12:44.207Z,99601.03
2023-01-15T16:17:50.416Z,99629.75
2023-01-15T16:23:05.537Z,99460.47
2023-01-15T16:28:27.000Z,99607.38
2023-01-15T16:33:32.275Z,99527.81
2023-01-15T16:38:37.161Z,99578.41
2023-01-15T16:44:14.936Z,99634.44
2023-01-15T16:49:27.602Z,99560.25
2023-01-15T16:54:30.194Z,99645.16
2023-01-15T16:59:32.585Z,99645.16
2023-01-15T17:04:37.720Z,99511.91
2023-01-15T17:09:46.140Z,99538.97
2023-01-15T17:14:48.448Z,99629.19
2023-01-15T17:19:51.983Z,99507.56
2023-01-15T17:24:56.707Z,99638.06
2023-01-15T17:30:05.684Z,99637.81
2023-01-15T17:35:23.273Z,99601.03
2023-01-15T17:40:26.331Z,99607.22
2023-01-15T17:45:30.749Z,99666.09
2023-01-15T17:50:34.286Z,99669.56
2023-01-15T17:55:55.145Z,99627.50
2023-01-15T18:01:16.517Z,99585.97
2023-01-15T18:06:24.894Z,99558.31
2023-01-15T18:11:27.307Z,99594.19
2023-01-15T18:16:30.476Z,99496.09
2023-01-15T18:21:35.946Z,99526.50
2023-01-15T18:26:39.997Z,99640.97
2023-01-15T18:31:42.434Z,99583.66
2023-01-15T18:36:44.941Z,99645.91
2023-01-15T18:41:47.216Z,99604.75
2023-01-15T18:46:52.846Z,99587.91
2023-01-15T18:52:13.648Z,99610.19
2023-01-15T18:57:16.917Z,99580.41
2023-01-15T19:02:22.575Z,99580.16
2023-01-15T19:07:25.000Z,99552.84
2023-01-15T19:12:32.241Z,99599.16
2023-01-15T19:17:54.374Z,99443.75
2023-01-15T19:23:05.432Z,99530.34
2023-01-15T19:28:11.217Z,99568.09
2023-01-15T19:33:13.904Z,99459.69
2023-01-15T19:38:16.862Z,99517.81
2023-01-15T19:43:37.637Z,99507.88
2023-01-15T19:48:59.444Z,99506.44
2023-01-15T19:54:04.408Z,99495.09
2023-01-15T19:59:09.907Z,99526.47
2023-01-15T20:04:12.378Z,99470.34
2023-01-15T20:09:15.318Z,99475.59
2023-01-15T20:14:17.618Z,99491.44
2023-01-15T20:19:19.967Z,99453.44
2023-01-15T20:24:23.281Z,99475.53
2023-01-15T20:29:25.711Z,99474.75
2023-01-15T20:34:31.083Z,99467.34
2023-01-15T20:39:33.455Z,99489.72
2023-01-15T20:44:53.809Z,99472.47
2023-01-15T20:49:56.112Z,99435.38
2023-01-15T20:54:58.789Z,99459.44
2023-01-15T21:00:01.378Z,99535.50
2023-01-15T21:05:08.111Z,99442.63
2023-01-15T21:10:12.321Z,99414.44
2023-01-15T21:15:15.356Z,99502.84
2023-01-15T21:20:17.941Z,99435.44
2023-01-15T21:25:20.256Z,99478.81
2023-01-15T21:30:25.948Z,99439.34
2023-01-15T21:35:28.593Z,99445.06
2023-01-15T21:40:30.855Z,99516.31
2023-01-15T21:45:33.261Z,99515.31
2023-01-15T21:50:37.597Z,99451.91
2023-01-15T21:55:39.906Z,99479.13
2023-01-15T22:00:43.311Z,99475.34
2023-01-15T22:05:45.962Z,99512.44
2023-01-15T22:10:48.334Z,99473.22
2023-01-15T22:15:55.137Z,99506.38
2023-01-15T22:21:02.422Z,99433.00
2023-01-15T22:26:04.957Z,99459.34
2023-01-15T22:31:07.526Z,99326.00
2023-01-15T22:36:13.288Z,99464.56
2023-01-15T22:41:15.564Z,99496.50
2023-01-15T22:46:17.863Z,99464.06
2023-01-15T22:51:20.174Z,99430.81
2023-01-15T22:56:22.679Z,99418.38
2023-01-15T23:01:25.071Z,99444.97
2023-01-15T23:06:28.946Z,99463.22
2023-01-15T23:11:31.288Z,99428.44
2023-01-15T23:16:33.653Z,99198.44
2023-01-15T23:21:36.150Z,99453.22
2023-01-15T23:26:38.643Z,99427.53
2023-01-15T23:31:41.070Z,99260.84
2023-01-15T23:36:43.497Z,99374.25
2023-01-15T23:42:04.316Z,99316.63
2023-01-15T23:47:07.971Z,99374.94
2023-01-15T23:52:10.448Z,99364.22
2023-01-15T23:57:12.785Z,99374.28
